sensor_id;sensor_type;location;lat;lon;timestamp;P1;durP1;ratioP1;P2;durP2;ratioP2
62338;SDS011;48368;53.406;6.214;2023-12-14T00:01:45;7.70;;;3.35;;
62338;SDS011;48368;53.406;6.214;2023-12-14T00:04:11;7.85;;;3.08;;
62338;SDS011;48368;53.406;6.214;2023-12-14T00:06:37;6.63;;;3.00;;
62338;SDS011;48368;53.406;6.214;2023-12-14T00:09:05;9.82;;;4.72;;
62338;SDS011;48368;53.406;6.214;2023-12-14T00:11:35;8.05;;;3.63;;
62338;SDS011;48368;53.406;6.214;2023-12-14T00:14:03;10.93;;;3.28;;
62338;SDS011;48368;53.406;6.214;2023-12-14T00:16:30;9.25;;;3.88;;
62338;SDS011;48368;53.406;6.214;2023-12-14T00:18:55;13.63;;;4.55;;
62338;SDS011;48368;53.406;6.214;2023-12-14T00:21:21;11.25;;;4.10;;
62338;SDS011;48368;53.406;6.214;2023-12-14T00:23:46;7.82;;;3.58;;
62338;SDS011;48368;53.406;6.214;2023-12-14T00:26:12;11.45;;;4.68;;
62338;SDS011;48368;53.406;6.214;2023-12-14T00:28:38;12.52;;;4.00;;
62338;SDS011;48368;53.406;6.214;2023-12-14T00:31:03;10.40;;;3.72;;
62338;SDS011;48368;53.406;6.214;2023-12-14T00:33:29;18.25;;;6.07;;
62338;SDS011;48368;53.406;6.214;2023-12-14T00:35:55;11.13;;;4.82;;
62338;SDS011;48368;53.406;6.214;2023-12-14T00:38:20;13.05;;;4.55;;
62338;SDS011;48368;53.406;6.214;2023-12-14T00:40:46;12.15;;;5.10;;
62338;SDS011;48368;53.406;6.214;2023-12-14T00:43:11;8.75;;;3.90;;
62338;SDS011;48368;53.406;6.214;2023-12-14T00:45:37;20.65;;;5.82;;
62338;SDS011;48368;53.406;6.214;2023-12-14T00:48:03;9.45;;;3.90;;
62338;SDS011;48368;53.406;6.214;2023-12-14T00:50:28;11.70;;;3.95;;
62338;SDS011;48368;53.406;6.214;2023-12-14T00:52:54;11.40;;;5.28;;
62338;SDS011;48368;53.406;6.214;2023-12-14T00:55:20;15.25;;;5.10;;
62338;SDS011;48368;53.406;6.214;2023-12-14T00:57:46;10.75;;;4.38;;
62338;SDS011;48368;53.406;6.214;2023-12-14T01:00:12;15.15;;;4.78;;
62338;SDS011;48368;53.406;6.214;2023-12-14T01:02:38;19.00;;;5.22;;
62338;SDS011;48368;53.406;6.214;2023-12-14T01:05:03;16.10;;;5.45;;
62338;SDS011;48368;53.406;6.214;2023-12-14T01:07:29;30.27;;;5.90;;
62338;SDS011;48368;53.406;6.214;2023-12-14T01:09:55;10.32;;;4.75;;
62338;SDS011;48368;53.406;6.214;2023-12-14T01:12:21;11.73;;;4.82;;
62338;SDS011;48368;53.406;6.214;2023-12-14T01:14:46;15.80;;;4.97;;
62338;SDS011;48368;53.406;6.214;2023-12-14T01:17:12;15.48;;;4.97;;
62338;SDS011;48368;53.406;6.214;2023-12-14T01:19:41;11.60;;;5.13;;
62338;SDS011;48368;53.406;6.214;2023-12-14T01:22:06;13.68;;;5.78;;
62338;SDS011;48368;53.406;6.214;2023-12-14T01:24:32;13.32;;;4.38;;
62338;SDS011;48368;53.406;6.214;2023-12-14T01:26:58;14.40;;;4.97;;
62338;SDS011;48368;53.406;6.214;2023-12-14T01:29:23;10.65;;;4.80;;
62338;SDS011;48368;53.406;6.214;2023-12-14T01:31:49;14.10;;;5.75;;
62338;SDS011;48368;53.406;6.214;2023-12-14T01:34:15;15.38;;;5.45;;
62338;SDS011;48368;53.406;6.214;2023-12-14T01:36:41;13.75;;;5.60;;
62338;SDS011;48368;53.406;6.214;2023-12-14T01:39:06;13.48;;;4.70;;
62338;SDS011;48368;53.406;6.214;2023-12-14T01:41:32;11.93;;;5.15;;
62338;SDS011;48368;53.406;6.214;2023-12-14T01:43:58;16.45;;;6.75;;
62338;SDS011;48368;53.406;6.214;2023-12-14T01:46:24;18.20;;;6.38;;
62338;SDS011;48368;53.406;6.214;2023-12-14T01:48:49;18.10;;;7.47;;
62338;SDS011;48368;53.406;6.214;2023-12-14T01:51:17;18.15;;;6.82;;
62338;SDS011;48368;53.406;6.214;2023-12-14T01:53:42;16.60;;;7.95;;
62338;SDS011;48368;53.406;6.214;2023-12-14T01:56:09;15.07;;;6.53;;
62338;SDS011;48368;53.406;6.214;2023-12-14T01:58:35;18.85;;;6.22;;
62338;SDS011;48368;53.406;6.214;2023-12-14T02:03:44;15.80;;;7.18;;
62338;SDS011;48368;53.406;6.214;2023-12-14T02:06:11;12.88;;;6.03;;
62338;SDS011;48368;53.406;6.214;2023-12-14T02:08:42;16.83;;;6.35;;
62338;SDS011;48368;53.406;6.214;2023-12-14T02:11:08;17.23;;;6.63;;
62338;SDS011;48368;53.406;6.214;2023-12-14T02:13:34;18.27;;;6.03;;
62338;SDS011;48368;53.406;6.214;2023-12-14T02:15:59;21.73;;;7.88;;
62338;SDS011;48368;53.406;6.214;2023-12-14T02:18:25;15.25;;;6.25;;
62338;SDS011;48368;53.406;6.214;2023-12-14T02:20:51;18.33;;;7.03;;
62338;SDS011;48368;53.406;6.214;2023-12-14T02:23:17;16.75;;;6.07;;
62338;SDS011;48368;53.406;6.214;2023-12-14T02:25:42;14.18;;;5.85;;
62338;SDS011;48368;53.406;6.214;2023-12-14T02:28:08;14.32;;;6.75;;
62338;SDS011;48368;53.406;6.214;2023-12-14T02:30:34;18.10;;;6.47;;
62338;SDS011;48368;53.406;6.214;2023-12-14T02:33:00;14.48;;;5.35;;
62338;SDS011;48368;53.406;6.214;2023-12-14T02:35:25;14.75;;;5.90;;
62338;SDS011;48368;53.406;6.214;2023-12-14T02:37:51;15.98;;;5.45;;
62338;SDS011;48368;53.406;6.214;2023-12-14T02:40:16;12.10;;;5.15;;
62338;SDS011;48368;53.406;6.214;2023-12-14T02:42:42;12.40;;;5.43;;
62338;SDS011;48368;53.406;6.214;2023-12-14T02:45:08;12.18;;;5.57;;
62338;SDS011;48368;53.406;6.214;2023-12-14T02:47:34;14.32;;;5.63;;
62338;SDS011;48368;53.406;6.214;2023-12-14T02:50:00;17.50;;;5.40;;
62338;SDS011;48368;53.406;6.214;2023-12-14T02:52:25;17.00;;;5.75;;
62338;SDS011;48368;53.406;6.214;2023-12-14T02:54:51;15.52;;;5.00;;
62338;SDS011;48368;53.406;6.214;2023-12-14T02:57:18;13.55;;;5.88;;
62338;SDS011;48368;53.406;6.214;2023-12-14T02:59:44;16.45;;;5.97;;
62338;SDS011;48368;53.406;6.214;2023-12-14T03:02:09;16.95;;;6.70;;
62338;SDS011;48368;53.406;6.214;2023-12-14T03:04:37;12.15;;;5.40;;
62338;SDS011;48368;53.406;6.214;2023-12-14T03:07:04;14.45;;;5.78;;
62338;SDS011;48368;53.406;6.214;2023-12-14T03:09:30;18.85;;;6.80;;
62338;SDS011;48368;53.406;6.214;2023-12-14T03:11:56;15.93;;;6.13;;
62338;SDS011;48368;53.406;6.214;2023-12-14T03:14:22;14.77;;;5.78;;
62338;SDS011;48368;53.406;6.214;2023-12-14T03:16:48;16.45;;;5.78;;
62338;SDS011;48368;53.406;6.214;2023-12-14T03:19:14;13.80;;;5.55;;
62338;SDS011;48368;53.406;6.214;2023-12-14T03:21:41;13.45;;;5.35;;
62338;SDS011;48368;53.406;6.214;2023-12-14T03:24:06;14.63;;;5.82;;
62338;SDS011;48368;53.406;6.214;2023-12-14T03:26:32;13.65;;;5.65;;
62338;SDS011;48368;53.406;6.214;2023-12-14T03:29:04;12.98;;;5.00;;
62338;SDS011;48368;53.406;6.214;2023-12-14T03:31:30;15.02;;;5.82;;
62338;SDS011;48368;53.406;6.214;2023-12-14T03:33:55;14.30;;;6.45;;
62338;SDS011;48368;53.406;6.214;2023-12-14T03:36:21;13.32;;;5.68;;
62338;SDS011;48368;53.406;6.214;2023-12-14T03:38:50;17.35;;;5.75;;
62338;SDS011;48368;53.406;6.214;2023-12-14T03:41:16;18.23;;;6.47;;
62338;SDS011;48368;53.406;6.214;2023-12-14T03:43:42;15.70;;;5.55;;
62338;SDS011;48368;53.406;6.214;2023-12-14T03:46:07;17.88;;;6.20;;
62338;SDS011;48368;53.406;6.214;2023-12-14T03:48:33;13.23;;;6.28;;
62338;SDS011;48368;53.406;6.214;2023-12-14T03:51:05;13.18;;;5.75;;
62338;SDS011;48368;53.406;6.214;2023-12-14T03:53:31;18.80;;;6.18;;
62338;SDS011;48368;53.406;6.214;2023-12-14T03:56:00;14.68;;;6.30;;
62338;SDS011;48368;53.406;6.214;2023-12-14T03:58:25;12.98;;;6.43;;
62338;SDS011;48368;53.406;6.214;2023-12-14T04:00:51;14.57;;;6.43;;
62338;SDS011;48368;53.406;6.214;2023-12-14T04:03:17;16.77;;;5.93;;
62338;SDS011;48368;53.406;6.214;2023-12-14T04:05:43;15.32;;;6.18;;
62338;SDS011;48368;53.406;6.214;2023-12-14T04:08:09;13.88;;;6.45;;
62338;SDS011;48368;53.406;6.214;2023-12-14T04:10:35;15.02;;;5.88;;
62338;SDS011;48368;53.406;6.214;2023-12-14T04:13:01;14.88;;;6.38;;
62338;SDS011;48368;53.406;6.214;2023-12-14T04:15:26;15.73;;;7.25;;
62338;SDS011;48368;53.406;6.214;2023-12-14T04:17:52;17.88;;;6.15;;
62338;SDS011;48368;53.406;6.214;2023-12-14T04:20:18;15.02;;;6.93;;
62338;SDS011;48368;53.406;6.214;2023-12-14T04:22:44;15.27;;;6.88;;
62338;SDS011;48368;53.406;6.214;2023-12-14T04:25:10;15.75;;;6.43;;
62338;SDS011;48368;53.406;6.214;2023-12-14T04:27:36;13.63;;;6.15;;
62338;SDS011;48368;53.406;6.214;2023-12-14T04:30:01;12.57;;;6.43;;
62338;SDS011;48368;53.406;6.214;2023-12-14T04:32:29;14.02;;;6.20;;
62338;SDS011;48368;53.406;6.214;2023-12-14T04:34:55;16.50;;;6.75;;
62338;SDS011;48368;53.406;6.214;2023-12-14T04:37:21;16.02;;;6.88;;
62338;SDS011;48368;53.406;6.214;2023-12-14T04:39:46;15.40;;;6.40;;
62338;SDS011;48368;53.406;6.214;2023-12-14T04:42:12;13.52;;;5.95;;
62338;SDS011;48368;53.406;6.214;2023-12-14T04:44:37;19.58;;;6.25;;
62338;SDS011;48368;53.406;6.214;2023-12-14T04:47:04;30.65;;;6.88;;
62338;SDS011;48368;53.406;6.214;2023-12-14T04:49:29;20.05;;;6.93;;
62338;SDS011;48368;53.406;6.214;2023-12-14T04:51:55;12.43;;;5.88;;
62338;SDS011;48368;53.406;6.214;2023-12-14T04:54:21;16.67;;;6.15;;
62338;SDS011;48368;53.406;6.214;2023-12-14T04:56:46;14.48;;;6.75;;
62338;SDS011;48368;53.406;6.214;2023-12-14T04:59:12;16.58;;;6.03;;
62338;SDS011;48368;53.406;6.214;2023-12-14T05:01:37;15.57;;;6.13;;
62338;SDS011;48368;53.406;6.214;2023-12-14T05:04:03;16.20;;;6.50;;
62338;SDS011;48368;53.406;6.214;2023-12-14T05:06:29;12.50;;;5.93;;
62338;SDS011;48368;53.406;6.214;2023-12-14T05:08:54;16.00;;;6.40;;
62338;SDS011;48368;53.406;6.214;2023-12-14T05:11:20;15.52;;;5.78;;
62338;SDS011;48368;53.406;6.214;2023-12-14T05:13:46;15.75;;;5.63;;
62338;SDS011;48368;53.406;6.214;2023-12-14T05:16:15;13.68;;;6.35;;
62338;SDS011;48368;53.406;6.214;2023-12-14T05:18:41;12.90;;;6.00;;
62338;SDS011;48368;53.406;6.214;2023-12-14T05:21:07;14.05;;;6.00;;
62338;SDS011;48368;53.406;6.214;2023-12-14T05:23:33;13.75;;;6.20;;
62338;SDS011;48368;53.406;6.214;2023-12-14T05:25:59;11.85;;;5.28;;
62338;SDS011;48368;53.406;6.214;2023-12-14T05:28:25;15.50;;;6.53;;
62338;SDS011;48368;53.406;6.214;2023-12-14T05:30:50;12.93;;;5.50;;
62338;SDS011;48368;53.406;6.214;2023-12-14T05:33:16;14.02;;;6.95;;
62338;SDS011;48368;53.406;6.214;2023-12-14T05:35:42;16.58;;;6.93;;
62338;SDS011;48368;53.406;6.214;2023-12-14T05:38:07;12.82;;;6.10;;
62338;SDS011;48368;53.406;6.214;2023-12-14T05:40:33;18.15;;;6.63;;
62338;SDS011;48368;53.406;6.214;2023-12-14T05:42:58;16.85;;;7.43;;
62338;SDS011;48368;53.406;6.214;2023-12-14T05:45:24;18.23;;;6.38;;
62338;SDS011;48368;53.406;6.214;2023-12-14T05:47:56;15.93;;;5.68;;
62338;SDS011;48368;53.406;6.214;2023-12-14T05:50:24;14.15;;;5.97;;
62338;SDS011;48368;53.406;6.214;2023-12-14T05:52:50;13.93;;;6.07;;
62338;SDS011;48368;53.406;6.214;2023-12-14T05:55:16;16.98;;;6.78;;
62338;SDS011;48368;53.406;6.214;2023-12-14T05:57:49;12.35;;;5.72;;
62338;SDS011;48368;53.406;6.214;2023-12-14T06:00:15;14.80;;;5.88;;
62338;SDS011;48368;53.406;6.214;2023-12-14T06:02:41;16.25;;;6.57;;
62338;SDS011;48368;53.406;6.214;2023-12-14T06:05:07;11.75;;;6.03;;
62338;SDS011;48368;53.406;6.214;2023-12-14T06:07:33;13.80;;;6.50;;
62338;SDS011;48368;53.406;6.214;2023-12-14T06:09:59;16.55;;;5.25;;
62338;SDS011;48368;53.406;6.214;2023-12-14T06:12:26;12.75;;;6.05;;
62338;SDS011;48368;53.406;6.214;2023-12-14T06:14:51;15.80;;;6.05;;
62338;SDS011;48368;53.406;6.214;2023-12-14T06:17:17;12.48;;;5.75;;
62338;SDS011;48368;53.406;6.214;2023-12-14T06:19:43;14.30;;;5.80;;
62338;SDS011;48368;53.406;6.214;2023-12-14T06:22:08;13.55;;;5.60;;
62338;SDS011;48368;53.406;6.214;2023-12-14T06:24:34;14.52;;;6.53;;
62338;SDS011;48368;53.406;6.214;2023-12-14T06:27:00;14.98;;;6.57;;
62338;SDS011;48368;53.406;6.214;2023-12-14T06:29:25;14.40;;;5.97;;
62338;SDS011;48368;53.406;6.214;2023-12-14T06:31:51;21.25;;;7.13;;
62338;SDS011;48368;53.406;6.214;2023-12-14T06:34:17;12.60;;;5.32;;
62338;SDS011;48368;53.406;6.214;2023-12-14T06:36:44;13.05;;;6.00;;
62338;SDS011;48368;53.406;6.214;2023-12-14T06:39:10;14.13;;;6.40;;
62338;SDS011;48368;53.406;6.214;2023-12-14T06:41:36;19.90;;;6.00;;
62338;SDS011;48368;53.406;6.214;2023-12-14T06:44:02;14.77;;;5.18;;
62338;SDS011;48368;53.406;6.214;2023-12-14T06:46:28;16.67;;;6.43;;
62338;SDS011;48368;53.406;6.214;2023-12-14T06:48:54;15.07;;;6.32;;
62338;SDS011;48368;53.406;6.214;2023-12-14T06:51:23;17.08;;;6.00;;
62338;SDS011;48368;53.406;6.214;2023-12-14T06:53:49;14.52;;;5.93;;
62338;SDS011;48368;53.406;6.214;2023-12-14T06:56:15;16.30;;;7.00;;
62338;SDS011;48368;53.406;6.214;2023-12-14T06:58:41;14.18;;;6.78;;
62338;SDS011;48368;53.406;6.214;2023-12-14T07:01:12;15.77;;;6.13;;
62338;SDS011;48368;53.406;6.214;2023-12-14T07:03:42;15.57;;;6.25;;
62338;SDS011;48368;53.406;6.214;2023-12-14T07:06:11;16.07;;;6.50;;
62338;SDS011;48368;53.406;6.214;2023-12-14T07:08:41;14.43;;;5.60;;
62338;SDS011;48368;53.406;6.214;2023-12-14T07:11:07;13.35;;;5.85;;
62338;SDS011;48368;53.406;6.214;2023-12-14T07:13:34;18.33;;;6.55;;
62338;SDS011;48368;53.406;6.214;2023-12-14T07:16:02;16.05;;;6.30;;
62338;SDS011;48368;53.406;6.214;2023-12-14T07:18:35;21.90;;;6.55;;
62338;SDS011;48368;53.406;6.214;2023-12-14T07:21:04;15.90;;;6.88;;
62338;SDS011;48368;53.406;6.214;2023-12-14T07:23:33;16.60;;;6.82;;
62338;SDS011;48368;53.406;6.214;2023-12-14T07:25:59;20.60;;;6.90;;
62338;SDS011;48368;53.406;6.214;2023-12-14T07:28:25;18.95;;;7.38;;
62338;SDS011;48368;53.406;6.214;2023-12-14T07:30:51;16.08;;;6.60;;
62338;SDS011;48368;53.406;6.214;2023-12-14T07:33:17;14.93;;;6.28;;
62338;SDS011;48368;53.406;6.214;2023-12-14T07:35:43;14.85;;;6.55;;
62338;SDS011;48368;53.406;6.214;2023-12-14T07:38:11;19.67;;;6.70;;
62338;SDS011;48368;53.406;6.214;2023-12-14T07:40:37;15.57;;;7.78;;
62338;SDS011;48368;53.406;6.214;2023-12-14T07:43:06;17.95;;;6.20;;
62338;SDS011;48368;53.406;6.214;2023-12-14T07:45:32;15.85;;;6.93;;
62338;SDS011;48368;53.406;6.214;2023-12-14T07:47:58;11.95;;;6.60;;
62338;SDS011;48368;53.406;6.214;2023-12-14T07:50:25;15.45;;;8.20;;
62338;SDS011;48368;53.406;6.214;2023-12-14T07:52:51;17.35;;;6.88;;
62338;SDS011;48368;53.406;6.214;2023-12-14T07:55:17;18.75;;;7.72;;
62338;SDS011;48368;53.406;6.214;2023-12-14T07:57:44;16.63;;;7.40;;
62338;SDS011;48368;53.406;6.214;2023-12-14T08:00:09;15.90;;;7.38;;
62338;SDS011;48368;53.406;6.214;2023-12-14T08:02:36;20.70;;;7.07;;
62338;SDS011;48368;53.406;6.214;2023-12-14T08:05:02;14.55;;;7.28;;
62338;SDS011;48368;53.406;6.214;2023-12-14T08:07:27;15.30;;;6.88;;
62338;SDS011;48368;53.406;6.214;2023-12-14T08:09:57;17.02;;;7.13;;
62338;SDS011;48368;53.406;6.214;2023-12-14T08:12:23;14.82;;;6.60;;
62338;SDS011;48368;53.406;6.214;2023-12-14T08:14:49;13.95;;;6.50;;
62338;SDS011;48368;53.406;6.214;2023-12-14T08:17:15;11.75;;;6.63;;
62338;SDS011;48368;53.406;6.214;2023-12-14T08:19:41;16.13;;;6.70;;
62338;SDS011;48368;53.406;6.214;2023-12-14T08:22:10;13.90;;;6.25;;
62338;SDS011;48368;53.406;6.214;2023-12-14T08:24:37;14.13;;;6.38;;
62338;SDS011;48368;53.406;6.214;2023-12-14T08:27:04;16.90;;;6.80;;
62338;SDS011;48368;53.406;6.214;2023-12-14T08:29:30;24.13;;;12.98;;
62338;SDS011;48368;53.406;6.214;2023-12-14T08:31:56;21.73;;;11.73;;
62338;SDS011;48368;53.406;6.214;2023-12-14T08:34:24;22.67;;;10.85;;
62338;SDS011;48368;53.406;6.214;2023-12-14T08:36:50;18.45;;;8.43;;
62338;SDS011;48368;53.406;6.214;2023-12-14T08:39:16;14.27;;;6.78;;
62338;SDS011;48368;53.406;6.214;2023-12-14T08:41:42;18.40;;;7.05;;
62338;SDS011;48368;53.406;6.214;2023-12-14T08:44:07;15.80;;;7.07;;
62338;SDS011;48368;53.406;6.214;2023-12-14T08:46:43;17.20;;;6.75;;
62338;SDS011;48368;53.406;6.214;2023-12-14T08:49:10;16.35;;;6.63;;
62338;SDS011;48368;53.406;6.214;2023-12-14T08:51:37;17.27;;;7.30;;
62338;SDS011;48368;53.406;6.214;2023-12-14T08:54:03;18.58;;;7.32;;
62338;SDS011;48368;53.406;6.214;2023-12-14T08:56:29;17.42;;;7.30;;
62338;SDS011;48368;53.406;6.214;2023-12-14T08:58:55;18.98;;;7.43;;
62338;SDS011;48368;53.406;6.214;2023-12-14T09:01:22;20.73;;;8.65;;
62338;SDS011;48368;53.406;6.214;2023-12-14T09:03:48;19.98;;;7.22;;
62338;SDS011;48368;53.406;6.214;2023-12-14T09:06:15;19.50;;;7.05;;
62338;SDS011;48368;53.406;6.214;2023-12-14T09:08:42;17.90;;;7.68;;
62338;SDS011;48368;53.406;6.214;2023-12-14T09:11:08;18.75;;;7.70;;
62338;SDS011;48368;53.406;6.214;2023-12-14T09:13:33;17.83;;;8.55;;
62338;SDS011;48368;53.406;6.214;2023-12-14T09:16:01;23.33;;;8.00;;
62338;SDS011;48368;53.406;6.214;2023-12-14T09:18:29;25.73;;;9.48;;
62338;SDS011;48368;53.406;6.214;2023-12-14T09:20:55;23.50;;;8.00;;
62338;SDS011;48368;53.406;6.214;2023-12-14T09:23:21;18.88;;;9.18;;
62338;SDS011;48368;53.406;6.214;2023-12-14T09:25:46;16.83;;;7.97;;
62338;SDS011;48368;53.406;6.214;2023-12-14T09:28:12;22.02;;;9.57;;
62338;SDS011;48368;53.406;6.214;2023-12-14T09:30:38;24.77;;;9.48;;
62338;SDS011;48368;53.406;6.214;2023-12-14T09:33:03;22.35;;;9.73;;
62338;SDS011;48368;53.406;6.214;2023-12-14T09:35:29;20.30;;;9.70;;
62338;SDS011;48368;53.406;6.214;2023-12-14T09:37:55;21.45;;;8.35;;
62338;SDS011;48368;53.406;6.214;2023-12-14T09:40:21;19.88;;;7.65;;
62338;SDS011;48368;53.406;6.214;2023-12-14T09:42:48;17.80;;;7.95;;
62338;SDS011;48368;53.406;6.214;2023-12-14T09:45:13;17.02;;;7.93;;
62338;SDS011;48368;53.406;6.214;2023-12-14T09:47:42;23.63;;;9.00;;
62338;SDS011;48368;53.406;6.214;2023-12-14T09:50:09;20.08;;;7.63;;
62338;SDS011;48368;53.406;6.214;2023-12-14T09:52:35;19.85;;;7.78;;
62338;SDS011;48368;53.406;6.214;2023-12-14T09:55:02;24.15;;;9.43;;
62338;SDS011;48368;53.406;6.214;2023-12-14T09:57:29;29.33;;;8.95;;
62338;SDS011;48368;53.406;6.214;2023-12-14T09:59:55;17.33;;;7.75;;
62338;SDS011;48368;53.406;6.214;2023-12-14T10:02:24;17.02;;;8.63;;
62338;SDS011;48368;53.406;6.214;2023-12-14T10:04:51;16.38;;;7.05;;
62338;SDS011;48368;53.406;6.214;2023-12-14T10:07:17;22.83;;;8.68;;
62338;SDS011;48368;53.406;6.214;2023-12-14T10:09:43;22.85;;;7.43;;
62338;SDS011;48368;53.406;6.214;2023-12-14T10:12:10;21.65;;;7.97;;
62338;SDS011;48368;53.406;6.214;2023-12-14T10:14:36;19.10;;;8.23;;
62338;SDS011;48368;53.406;6.214;2023-12-14T10:17:13;19.75;;;7.88;;
62338;SDS011;48368;53.406;6.214;2023-12-14T10:19:44;21.48;;;9.00;;
62338;SDS011;48368;53.406;6.214;2023-12-14T10:22:12;22.90;;;8.80;;
62338;SDS011;48368;53.406;6.214;2023-12-14T10:24:42;18.30;;;8.13;;
62338;SDS011;48368;53.406;6.214;2023-12-14T10:27:09;20.77;;;9.18;;
62338;SDS011;48368;53.406;6.214;2023-12-14T10:29:39;24.00;;;10.65;;
62338;SDS011;48368;53.406;6.214;2023-12-14T10:32:05;20.20;;;9.32;;
62338;SDS011;48368;53.406;6.214;2023-12-14T10:34:35;18.10;;;8.35;;
62338;SDS011;48368;53.406;6.214;2023-12-14T10:37:01;18.42;;;8.77;;
62338;SDS011;48368;53.406;6.214;2023-12-14T10:39:29;17.17;;;9.00;;
62338;SDS011;48368;53.406;6.214;2023-12-14T10:41:56;19.35;;;9.18;;
62338;SDS011;48368;53.406;6.214;2023-12-14T10:44:25;22.45;;;9.35;;
62338;SDS011;48368;53.406;6.214;2023-12-14T10:46:55;23.45;;;9.70;;
62338;SDS011;48368;53.406;6.214;2023-12-14T10:49:31;19.67;;;8.73;;
62338;SDS011;48368;53.406;6.214;2023-12-14T10:51:59;21.80;;;8.80;;
62338;SDS011;48368;53.406;6.214;2023-12-14T10:54:27;19.25;;;9.70;;
62338;SDS011;48368;53.406;6.214;2023-12-14T10:56:58;17.63;;;8.63;;
62338;SDS011;48368;53.406;6.214;2023-12-14T10:59:24;19.25;;;9.60;;
62338;SDS011;48368;53.406;6.214;2023-12-14T11:01:54;26.70;;;9.60;;
62338;SDS011;48368;53.406;6.214;2023-12-14T11:06:52;21.58;;;9.05;;
62338;SDS011;48368;53.406;6.214;2023-12-14T11:09:19;22.70;;;10.30;;
62338;SDS011;48368;53.406;6.214;2023-12-14T11:14:18;19.52;;;8.95;;
62338;SDS011;48368;53.406;6.214;2023-12-14T11:16:46;19.50;;;9.23;;
62338;SDS011;48368;53.406;6.214;2023-12-14T11:19:23;20.27;;;9.88;;
62338;SDS011;48368;53.406;6.214;2023-12-14T11:24:20;23.27;;;9.82;;
62338;SDS011;48368;53.406;6.214;2023-12-14T11:26:48;22.20;;;9.98;;
62338;SDS011;48368;53.406;6.214;2023-12-14T11:29:15;19.33;;;9.70;;
62338;SDS011;48368;53.406;6.214;2023-12-14T11:31:41;25.85;;;11.73;;
62338;SDS011;48368;53.406;6.214;2023-12-14T11:34:07;24.73;;;10.43;;
62338;SDS011;48368;53.406;6.214;2023-12-14T11:36:33;22.30;;;10.93;;
62338;SDS011;48368;53.406;6.214;2023-12-14T11:38:59;31.17;;;13.07;;
62338;SDS011;48368;53.406;6.214;2023-12-14T11:41:24;29.38;;;12.48;;
62338;SDS011;48368;53.406;6.214;2023-12-14T11:43:51;24.63;;;10.73;;
62338;SDS011;48368;53.406;6.214;2023-12-14T11:46:16;20.30;;;9.52;;
62338;SDS011;48368;53.406;6.214;2023-12-14T11:48:46;20.85;;;11.38;;
62338;SDS011;48368;53.406;6.214;2023-12-14T11:51:14;21.75;;;11.18;;
62338;SDS011;48368;53.406;6.214;2023-12-14T11:53:43;22.08;;;10.07;;
62338;SDS011;48368;53.406;6.214;2023-12-14T11:56:12;22.55;;;10.40;;
62338;SDS011;48368;53.406;6.214;2023-12-14T11:58:43;23.33;;;10.60;;
62338;SDS011;48368;53.406;6.214;2023-12-14T12:01:19;21.63;;;10.20;;
62338;SDS011;48368;53.406;6.214;2023-12-14T12:03:50;23.20;;;10.18;;
62338;SDS011;48368;53.406;6.214;2023-12-14T12:06:20;20.27;;;9.82;;
62338;SDS011;48368;53.406;6.214;2023-12-14T12:08:46;21.23;;;10.02;;
62338;SDS011;48368;53.406;6.214;2023-12-14T12:11:15;24.23;;;10.02;;
62338;SDS011;48368;53.406;6.214;2023-12-14T12:13:50;20.17;;;10.00;;
62338;SDS011;48368;53.406;6.214;2023-12-14T12:16:16;23.80;;;10.98;;
62338;SDS011;48368;53.406;6.214;2023-12-14T12:18:42;22.77;;;10.63;;
62338;SDS011;48368;53.406;6.214;2023-12-14T12:21:07;21.48;;;10.32;;
62338;SDS011;48368;53.406;6.214;2023-12-14T12:23:34;22.35;;;10.50;;
62338;SDS011;48368;53.406;6.214;2023-12-14T12:26:00;24.70;;;10.85;;
62338;SDS011;48368;53.406;6.214;2023-12-14T12:28:25;22.42;;;12.00;;
62338;SDS011;48368;53.406;6.214;2023-12-14T12:30:51;19.80;;;9.73;;
62338;SDS011;48368;53.406;6.214;2023-12-14T12:33:17;21.67;;;9.63;;
62338;SDS011;48368;53.406;6.214;2023-12-14T12:35:42;24.38;;;10.63;;
62338;SDS011;48368;53.406;6.214;2023-12-14T12:38:08;21.77;;;10.52;;
62338;SDS011;48368;53.406;6.214;2023-12-14T12:40:33;21.10;;;9.35;;
62338;SDS011;48368;53.406;6.214;2023-12-14T12:42:59;19.17;;;10.75;;
62338;SDS011;48368;53.406;6.214;2023-12-14T12:45:25;18.52;;;10.27;;
62338;SDS011;48368;53.406;6.214;2023-12-14T12:47:54;20.80;;;10.23;;
62338;SDS011;48368;53.406;6.214;2023-12-14T12:50:19;23.17;;;10.13;;
62338;SDS011;48368;53.406;6.214;2023-12-14T12:52:45;22.20;;;10.63;;
62338;SDS011;48368;53.406;6.214;2023-12-14T12:55:13;20.63;;;10.75;;
62338;SDS011;48368;53.406;6.214;2023-12-14T12:57:43;19.13;;;10.02;;
62338;SDS011;48368;53.406;6.214;2023-12-14T13:00:08;19.30;;;10.50;;
62338;SDS011;48368;53.406;6.214;2023-12-14T13:02:38;19.95;;;9.82;;
62338;SDS011;48368;53.406;6.214;2023-12-14T13:05:05;22.70;;;10.32;;
62338;SDS011;48368;53.406;6.214;2023-12-14T13:07:33;26.17;;;11.55;;
62338;SDS011;48368;53.406;6.214;2023-12-14T13:09:59;21.55;;;10.48;;
62338;SDS011;48368;53.406;6.214;2023-12-14T13:12:24;21.92;;;10.65;;
62338;SDS011;48368;53.406;6.214;2023-12-14T13:14:51;20.90;;;10.18;;
62338;SDS011;48368;53.406;6.214;2023-12-14T13:17:16;22.42;;;11.85;;
62338;SDS011;48368;53.406;6.214;2023-12-14T13:19:43;21.08;;;12.23;;
62338;SDS011;48368;53.406;6.214;2023-12-14T13:22:09;20.67;;;11.07;;
62338;SDS011;48368;53.406;6.214;2023-12-14T13:24:36;20.15;;;11.23;;
62338;SDS011;48368;53.406;6.214;2023-12-14T13:27:02;19.95;;;10.57;;
62338;SDS011;48368;53.406;6.214;2023-12-14T13:29:29;19.23;;;9.65;;
62338;SDS011;48368;53.406;6.214;2023-12-14T13:31:59;19.48;;;9.70;;
62338;SDS011;48368;53.406;6.214;2023-12-14T13:34:26;20.13;;;9.50;;
62338;SDS011;48368;53.406;6.214;2023-12-14T13:36:53;19.67;;;9.45;;
62338;SDS011;48368;53.406;6.214;2023-12-14T13:39:19;19.83;;;9.52;;
62338;SDS011;48368;53.406;6.214;2023-12-14T13:41:44;17.33;;;8.75;;
62338;SDS011;48368;53.406;6.214;2023-12-14T13:44:10;16.67;;;9.85;;
62338;SDS011;48368;53.406;6.214;2023-12-14T13:46:36;17.05;;;9.00;;
62338;SDS011;48368;53.406;6.214;2023-12-14T13:49:04;18.17;;;8.65;;
62338;SDS011;48368;53.406;6.214;2023-12-14T13:51:29;20.35;;;8.88;;
62338;SDS011;48368;53.406;6.214;2023-12-14T13:53:55;19.38;;;8.80;;
62338;SDS011;48368;53.406;6.214;2023-12-14T13:56:24;17.58;;;8.13;;
62338;SDS011;48368;53.406;6.214;2023-12-14T13:58:50;20.80;;;8.95;;
62338;SDS011;48368;53.406;6.214;2023-12-14T14:01:19;17.33;;;9.27;;
62338;SDS011;48368;53.406;6.214;2023-12-14T14:03:44;21.23;;;9.60;;
62338;SDS011;48368;53.406;6.214;2023-12-14T14:06:12;18.35;;;9.20;;
62338;SDS011;48368;53.406;6.214;2023-12-14T14:08:38;18.17;;;9.18;;
62338;SDS011;48368;53.406;6.214;2023-12-14T14:11:04;21.20;;;9.77;;
62338;SDS011;48368;53.406;6.214;2023-12-14T14:13:30;21.00;;;9.77;;
62338;SDS011;48368;53.406;6.214;2023-12-14T14:15:57;24.08;;;9.93;;
62338;SDS011;48368;53.406;6.214;2023-12-14T14:18:22;18.75;;;9.32;;
62338;SDS011;48368;53.406;6.214;2023-12-14T14:20:48;21.58;;;9.55;;
62338;SDS011;48368;53.406;6.214;2023-12-14T14:23:17;16.80;;;9.35;;
62338;SDS011;48368;53.406;6.214;2023-12-14T14:25:46;16.70;;;9.10;;
62338;SDS011;48368;53.406;6.214;2023-12-14T14:28:11;18.55;;;9.18;;
62338;SDS011;48368;53.406;6.214;2023-12-14T14:30:37;20.50;;;9.63;;
62338;SDS011;48368;53.406;6.214;2023-12-14T14:33:03;19.95;;;9.40;;
62338;SDS011;48368;53.406;6.214;2023-12-14T14:35:29;18.80;;;9.90;;
62338;SDS011;48368;53.406;6.214;2023-12-14T14:37:57;21.08;;;9.45;;
62338;SDS011;48368;53.406;6.214;2023-12-14T14:40:23;18.88;;;9.75;;